sensor_id;sensor_type;location;lat;lon;timestamp;P1;durP1;ratioP1;P2;durP2;ratioP2
75504;SDS011;64085;54.974;73.410;2022-11-21T00:00:26;4.13;;;2.65;;
75504;SDS011;64085;54.974;73.410;2022-11-21T00:02:52;7.40;;;3.30;;
75504;SDS011;64085;54.974;73.410;2022-11-21T00:05:18;7.22;;;3.83;;
75504;SDS011;64085;54.974;73.410;2022-11-21T00:07:44;5.82;;;3.35;;
75504;SDS011;64085;54.974;73.410;2022-11-21T00:10:13;3.95;;;3.10;;
75504;SDS011;64085;54.974;73.410;2022-11-21T00:12:39;1.40;;;1.27;;
75504;SDS011;64085;54.974;73.410;2022-11-21T00:15:05;6.65;;;3.33;;
75504;SDS011;64085;54.974;73.410;2022-11-21T00:17:30;8.23;;;4.82;;
75504;SDS011;64085;54.974;73.410;2022-11-21T00:19:56;3.97;;;2.72;;
75504;SDS011;64085;54.974;73.410;2022-11-21T00:22:21;5.03;;;3.85;;
75504;SDS011;64085;54.974;73.410;2022-11-21T00:24:47;4.45;;;2.75;;
75504;SDS011;64085;54.974;73.410;2022-11-21T00:27:12;6.68;;;3.67;;
75504;SDS011;64085;54.974;73.410;2022-11-21T00:29:38;5.13;;;3.10;;
75504;SDS011;64085;54.974;73.410;2022-11-21T00:32:03;11.88;;;4.85;;
75504;SDS011;64085;54.974;73.410;2022-11-21T00:34:29;4.10;;;3.20;;
75504;SDS011;64085;54.974;73.410;2022-11-21T00:36:55;6.03;;;4.88;;
75504;SDS011;64085;54.974;73.410;2022-11-21T00:39:20;5.25;;;1.88;;
75504;SDS011;64085;54.974;73.410;2022-11-21T00:41:46;9.82;;;5.65;;
75504;SDS011;64085;54.974;73.410;2022-11-21T00:44:11;7.18;;;4.15;;
75504;SDS011;64085;54.974;73.410;2022-11-21T00:46:37;6.10;;;3.25;;
75504;SDS011;64085;54.974;73.410;2022-11-21T00:49:02;14.25;;;6.55;;
75504;SDS011;64085;54.974;73.410;2022-11-21T00:51:28;9.38;;;5.60;;
75504;SDS011;64085;54.974;73.410;2022-11-21T00:53:53;11.65;;;6.72;;
75504;SDS011;64085;54.974;73.410;2022-11-21T00:56:19;10.80;;;5.28;;
75504;SDS011;64085;54.974;73.410;2022-11-21T00:58:45;9.55;;;5.22;;
75504;SDS011;64085;54.974;73.410;2022-11-21T01:01:11;26.08;;;10.40;;
75504;SDS011;64085;54.974;73.410;2022-11-21T01:03:37;11.00;;;4.90;;
75504;SDS011;64085;54.974;73.410;2022-11-21T01:06:03;10.52;;;4.80;;
75504;SDS011;64085;54.974;73.410;2022-11-21T01:08:29;6.72;;;4.28;;
75504;SDS011;64085;54.974;73.410;2022-11-21T01:10:55;15.27;;;6.65;;
75504;SDS011;64085;54.974;73.410;2022-11-21T01:13:21;7.95;;;4.85;;
75504;SDS011;64085;54.974;73.410;2022-11-21T01:15:47;9.57;;;6.32;;
75504;SDS011;64085;54.974;73.410;2022-11-21T01:18:13;1.17;;;1.08;;
75504;SDS011;64085;54.974;73.410;2022-11-21T01:20:38;7.95;;;6.03;;
75504;SDS011;64085;54.974;73.410;2022-11-21T01:23:04;2.35;;;2.25;;
75504;SDS011;64085;54.974;73.410;2022-11-21T01:25:32;14.90;;;7.20;;
75504;SDS011;64085;54.974;73.410;2022-11-21T01:27:57;12.75;;;4.88;;
75504;SDS011;64085;54.974;73.410;2022-11-21T01:30:23;5.53;;;4.00;;
75504;SDS011;64085;54.974;73.410;2022-11-21T01:32:49;6.07;;;4.57;;
75504;SDS011;64085;54.974;73.410;2022-11-21T01:35:14;4.38;;;3.28;;
75504;SDS011;64085;54.974;73.410;2022-11-21T01:37:40;7.55;;;2.00;;
75504;SDS011;64085;54.974;73.410;2022-11-21T01:40:05;7.00;;;4.60;;
75504;SDS011;64085;54.974;73.410;2022-11-21T01:42:48;10.52;;;4.20;;
75504;SDS011;64085;54.974;73.410;2022-11-21T01:48:00;2.13;;;1.58;;
75504;SDS011;64085;54.974;73.410;2022-11-21T01:50:25;3.58;;;2.47;;
75504;SDS011;64085;54.974;73.410;2022-11-21T01:52:51;9.30;;;2.92;;
75504;SDS011;64085;54.974;73.410;2022-11-21T01:55:16;9.93;;;4.10;;
75504;SDS011;64085;54.974;73.410;2022-11-21T01:57:43;17.90;;;5.40;;
75504;SDS011;64085;54.974;73.410;2022-11-21T02:00:10;7.13;;;3.97;;
75504;SDS011;64085;54.974;73.410;2022-11-21T02:02:39;7.22;;;2.50;;
75504;SDS011;64085;54.974;73.410;2022-11-21T02:05:07;8.80;;;3.53;;
75504;SDS011;64085;54.974;73.410;2022-11-21T02:07:34;1.67;;;1.58;;
75504;SDS011;64085;54.974;73.410;2022-11-21T02:10:01;9.10;;;5.70;;
75504;SDS011;64085;54.974;73.410;2022-11-21T02:13:00;11.63;;;5.93;;
75504;SDS011;64085;54.974;73.410;2022-11-21T02:15:23;14.13;;;5.10;;
75504;SDS011;64085;54.974;73.410;2022-11-21T02:17:49;6.82;;;3.25;;
75504;SDS011;64085;54.974;73.410;2022-11-21T02:20:15;8.63;;;3.80;;
75504;SDS011;64085;54.974;73.410;2022-11-21T02:22:44;4.38;;;3.55;;
75504;SDS011;64085;54.974;73.410;2022-11-21T02:25:14;14.23;;;4.25;;
75504;SDS011;64085;54.974;73.410;2022-11-21T02:27:41;9.20;;;4.85;;
75504;SDS011;64085;54.974;73.410;2022-11-21T02:30:07;13.18;;;5.03;;
75504;SDS011;64085;54.974;73.410;2022-11-21T02:32:34;6.82;;;3.75;;
75504;SDS011;64085;54.974;73.410;2022-11-21T02:35:00;5.43;;;3.42;;
75504;SDS011;64085;54.974;73.410;2022-11-21T02:37:26;8.05;;;3.25;;
75504;SDS011;64085;54.974;73.410;2022-11-21T02:39:52;5.95;;;3.70;;
75504;SDS011;64085;54.974;73.410;2022-11-21T02:45:17;6.70;;;3.20;;
75504;SDS011;64085;54.974;73.410;2022-11-21T02:47:44;6.60;;;4.10;;
75504;SDS011;64085;54.974;73.410;2022-11-21T02:50:15;2.85;;;1.33;;
75504;SDS011;64085;54.974;73.410;2022-11-21T02:52:43;5.88;;;2.78;;
75504;SDS011;64085;54.974;73.410;2022-11-21T02:55:09;1.60;;;1.45;;
75504;SDS011;64085;54.974;73.410;2022-11-21T02:57:37;7.78;;;4.70;;
75504;SDS011;64085;54.974;73.410;2022-11-21T03:00:02;6.53;;;3.85;;
75504;SDS011;64085;54.974;73.410;2022-11-21T03:02:28;7.15;;;3.92;;
75504;SDS011;64085;54.974;73.410;2022-11-21T03:04:53;8.32;;;3.53;;
75504;SDS011;64085;54.974;73.410;2022-11-21T03:07:19;9.13;;;4.57;;
75504;SDS011;64085;54.974;73.410;2022-11-21T03:09:44;9.15;;;4.15;;
75504;SDS011;64085;54.974;73.410;2022-11-21T03:12:10;19.90;;;8.65;;
75504;SDS011;64085;54.974;73.410;2022-11-21T03:14:35;7.38;;;3.45;;
75504;SDS011;64085;54.974;73.410;2022-11-21T03:17:01;13.18;;;4.07;;
75504;SDS011;64085;54.974;73.410;2022-11-21T03:19:27;9.40;;;3.92;;
75504;SDS011;64085;54.974;73.410;2022-11-21T03:21:52;10.40;;;4.68;;
75504;SDS011;64085;54.974;73.410;2022-11-21T03:24:18;7.72;;;4.45;;
75504;SDS011;64085;54.974;73.410;2022-11-21T03:26:43;8.55;;;4.45;;
75504;SDS011;64085;54.974;73.410;2022-11-21T03:29:09;11.13;;;6.82;;
75504;SDS011;64085;54.974;73.410;2022-11-21T03:31:34;1.45;;;1.00;;
75504;SDS011;64085;54.974;73.410;2022-11-21T03:34:00;8.77;;;3.50;;
75504;SDS011;64085;54.974;73.410;2022-11-21T03:36:26;13.07;;;5.88;;
75504;SDS011;64085;54.974;73.410;2022-11-21T03:38:51;9.85;;;6.80;;
75504;SDS011;64085;54.974;73.410;2022-11-21T03:41:18;9.82;;;4.70;;
75504;SDS011;64085;54.974;73.410;2022-11-21T03:46:21;10.55;;;4.80;;
75504;SDS011;64085;54.974;73.410;2022-11-21T03:48:47;2.78;;;2.30;;
75504;SDS011;64085;54.974;73.410;2022-11-21T03:51:12;9.88;;;5.03;;
75504;SDS011;64085;54.974;73.410;2022-11-21T03:53:38;8.45;;;4.05;;
75504;SDS011;64085;54.974;73.410;2022-11-21T03:56:04;7.65;;;5.07;;
75504;SDS011;64085;54.974;73.410;2022-11-21T03:58:29;10.55;;;5.75;;
75504;SDS011;64085;54.974;73.410;2022-11-21T04:00:55;6.55;;;4.43;;
75504;SDS011;64085;54.974;73.410;2022-11-21T04:03:20;12.80;;;5.10;;
75504;SDS011;64085;54.974;73.410;2022-11-21T04:05:46;9.77;;;5.63;;
75504;SDS011;64085;54.974;73.410;2022-11-21T04:08:12;11.43;;;6.05;;
75504;SDS011;64085;54.974;73.410;2022-11-21T04:10:37;9.82;;;5.03;;
75504;SDS011;64085;54.974;73.410;2022-11-21T04:13:02;22.50;;;6.18;;
75504;SDS011;64085;54.974;73.410;2022-11-21T04:15:28;13.82;;;6.15;;
75504;SDS011;64085;54.974;73.410;2022-11-21T04:17:54;13.48;;;8.07;;
75504;SDS011;64085;54.974;73.410;2022-11-21T04:20:19;17.60;;;8.10;;
75504;SDS011;64085;54.974;73.410;2022-11-21T04:22:44;18.20;;;8.40;;
75504;SDS011;64085;54.974;73.410;2022-11-21T04:25:10;20.67;;;11.00;;
75504;SDS011;64085;54.974;73.410;2022-11-21T04:27:37;16.75;;;7.80;;
75504;SDS011;64085;54.974;73.410;2022-11-21T04:30:03;16.77;;;9.35;;
75504;SDS011;64085;54.974;73.410;2022-11-21T04:32:28;21.38;;;13.10;;
75504;SDS011;64085;54.974;73.410;2022-11-21T04:34:54;23.35;;;10.52;;
75504;SDS011;64085;54.974;73.410;2022-11-21T04:37:19;20.00;;;7.10;;
75504;SDS011;64085;54.974;73.410;2022-11-21T04:39:45;19.63;;;9.25;;
75504;SDS011;64085;54.974;73.410;2022-11-21T04:42:10;24.17;;;10.88;;
75504;SDS011;64085;54.974;73.410;2022-11-21T04:44:36;28.05;;;12.52;;
75504;SDS011;64085;54.974;73.410;2022-11-21T04:47:02;20.23;;;8.40;;
75504;SDS011;64085;54.974;73.410;2022-11-21T04:49:27;24.55;;;10.00;;
75504;SDS011;64085;54.974;73.410;2022-11-21T04:51:52;26.80;;;13.00;;
75504;SDS011;64085;54.974;73.410;2022-11-21T04:54:18;22.42;;;11.00;;
75504;SDS011;64085;54.974;73.410;2022-11-21T04:56:44;20.27;;;9.98;;
75504;SDS011;64085;54.974;73.410;2022-11-21T04:59:09;27.10;;;13.38;;
75504;SDS011;64085;54.974;73.410;2022-11-21T05:01:36;24.65;;;10.80;;
75504;SDS011;64085;54.974;73.410;2022-11-21T05:04:02;27.08;;;13.05;;
75504;SDS011;64085;54.974;73.410;2022-11-21T05:06:28;24.33;;;12.70;;
75504;SDS011;64085;54.974;73.410;2022-11-21T05:08:53;21.27;;;13.00;;
75504;SDS011;64085;54.974;73.410;2022-11-21T05:11:19;27.92;;;12.85;;
75504;SDS011;64085;54.974;73.410;2022-11-21T05:14:03;16.13;;;9.98;;
75504;SDS011;64085;54.974;73.410;2022-11-21T05:16:28;23.38;;;11.95;;
75504;SDS011;64085;54.974;73.410;2022-11-21T05:18:56;22.42;;;12.27;;
75504;SDS011;64085;54.974;73.410;2022-11-21T05:21:21;22.48;;;11.30;;
75504;SDS011;64085;54.974;73.410;2022-11-21T05:23:47;25.10;;;11.63;;
75504;SDS011;64085;54.974;73.410;2022-11-21T05:26:12;21.23;;;12.70;;
75504;SDS011;64085;54.974;73.410;2022-11-21T05:28:38;21.20;;;12.18;;
75504;SDS011;64085;54.974;73.410;2022-11-21T05:31:03;17.27;;;9.55;;
75504;SDS011;64085;54.974;73.410;2022-11-21T05:33:29;18.33;;;9.85;;
75504;SDS011;64085;54.974;73.410;2022-11-21T05:35:54;17.17;;;8.50;;
75504;SDS011;64085;54.974;73.410;2022-11-21T05:38:19;25.58;;;12.23;;
75504;SDS011;64085;54.974;73.410;2022-11-21T05:40:45;18.75;;;11.73;;
75504;SDS011;64085;54.974;73.410;2022-11-21T05:43:11;23.67;;;13.05;;
75504;SDS011;64085;54.974;73.410;2022-11-21T05:45:54;20.90;;;11.43;;
75504;SDS011;64085;54.974;73.410;2022-11-21T05:48:20;18.02;;;9.15;;
75504;SDS011;64085;54.974;73.410;2022-11-21T05:50:48;16.23;;;9.10;;
75504;SDS011;64085;54.974;73.410;2022-11-21T05:53:14;18.25;;;8.93;;
75504;SDS011;64085;54.974;73.410;2022-11-21T05:55:40;16.13;;;7.72;;
75504;SDS011;64085;54.974;73.410;2022-11-21T05:58:05;15.93;;;8.73;;
75504;SDS011;64085;54.974;73.410;2022-11-21T06:00:33;21.33;;;9.30;;
75504;SDS011;64085;54.974;73.410;2022-11-21T06:02:58;18.55;;;7.90;;
75504;SDS011;64085;54.974;73.410;2022-11-21T06:05:42;17.70;;;9.38;;
75504;SDS011;64085;54.974;73.410;2022-11-21T06:08:07;12.82;;;7.78;;
75504;SDS011;64085;54.974;73.410;2022-11-21T06:10:33;16.15;;;8.10;;
75504;SDS011;64085;54.974;73.410;2022-11-21T06:12:59;22.95;;;11.75;;
75504;SDS011;64085;54.974;73.410;2022-11-21T06:15:25;18.15;;;11.25;;
75504;SDS011;64085;54.974;73.410;2022-11-21T06:17:50;16.15;;;8.85;;
75504;SDS011;64085;54.974;73.410;2022-11-21T06:20:16;17.42;;;8.75;;
75504;SDS011;64085;54.974;73.410;2022-11-21T06:22:42;13.35;;;7.00;;
75504;SDS011;64085;54.974;73.410;2022-11-21T06:25:07;12.73;;;7.70;;
75504;SDS011;64085;54.974;73.410;2022-11-21T06:27:33;16.65;;;8.13;;
75504;SDS011;64085;54.974;73.410;2022-11-21T06:29:58;11.27;;;7.28;;
75504;SDS011;64085;54.974;73.410;2022-11-21T06:32:24;21.33;;;9.52;;
75504;SDS011;64085;54.974;73.410;2022-11-21T06:34:49;19.60;;;8.95;;
75504;SDS011;64085;54.974;73.410;2022-11-21T06:37:15;13.60;;;6.25;;
75504;SDS011;64085;54.974;73.410;2022-11-21T06:39:40;10.98;;;5.00;;
75504;SDS011;64085;54.974;73.410;2022-11-21T06:42:06;17.80;;;7.03;;
75504;SDS011;64085;54.974;73.410;2022-11-21T06:44:31;11.18;;;6.07;;
75504;SDS011;64085;54.974;73.410;2022-11-21T06:46:57;13.75;;;4.50;;
75504;SDS011;64085;54.974;73.410;2022-11-21T06:49:22;12.45;;;5.50;;
75504;SDS011;64085;54.974;73.410;2022-11-21T06:51:48;10.43;;;5.82;;
75504;SDS011;64085;54.974;73.410;2022-11-21T06:54:13;12.93;;;6.90;;
75504;SDS011;64085;54.974;73.410;2022-11-21T06:56:39;10.45;;;5.13;;
75504;SDS011;64085;54.974;73.410;2022-11-21T06:59:04;11.93;;;6.25;;
75504;SDS011;64085;54.974;73.410;2022-11-21T07:01:30;11.13;;;5.20;;
75504;SDS011;64085;54.974;73.410;2022-11-21T07:03:55;8.25;;;5.18;;
75504;SDS011;64085;54.974;73.410;2022-11-21T07:06:21;9.30;;;5.05;;
75504;SDS011;64085;54.974;73.410;2022-11-21T07:08:46;8.30;;;3.40;;
75504;SDS011;64085;54.974;73.410;2022-11-21T07:11:12;8.68;;;4.00;;
75504;SDS011;64085;54.974;73.410;2022-11-21T07:13:38;7.93;;;4.30;;
75504;SDS011;64085;54.974;73.410;2022-11-21T07:16:08;8.93;;;4.10;;
75504;SDS011;64085;54.974;73.410;2022-11-21T07:18:51;7.43;;;2.95;;
75504;SDS011;64085;54.974;73.410;2022-11-21T07:21:17;9.05;;;4.55;;
75504;SDS011;64085;54.974;73.410;2022-11-21T07:23:42;10.02;;;3.92;;
75504;SDS011;64085;54.974;73.410;2022-11-21T07:26:08;8.48;;;5.20;;
75504;SDS011;64085;54.974;73.410;2022-11-21T07:28:34;6.90;;;4.65;;
75504;SDS011;64085;54.974;73.410;2022-11-21T07:31:00;19.40;;;4.57;;
75504;SDS011;64085;54.974;73.410;2022-11-21T07:33:27;8.13;;;4.30;;
75504;SDS011;64085;54.974;73.410;2022-11-21T07:35:56;8.88;;;4.28;;
75504;SDS011;64085;54.974;73.410;2022-11-21T07:38:22;10.80;;;3.80;;
75504;SDS011;64085;54.974;73.410;2022-11-21T07:40:47;7.00;;;4.55;;
75504;SDS011;64085;54.974;73.410;2022-11-21T07:43:13;6.28;;;4.30;;
75504;SDS011;64085;54.974;73.410;2022-11-21T07:45:38;15.02;;;6.65;;
75504;SDS011;64085;54.974;73.410;2022-11-21T07:48:05;11.77;;;6.03;;
75504;SDS011;64085;54.974;73.410;2022-11-21T07:50:31;9.40;;;5.88;;
75504;SDS011;64085;54.974;73.410;2022-11-21T07:52:59;9.55;;;5.78;;
75504;SDS011;64085;54.974;73.410;2022-11-21T07:55:25;12.23;;;5.97;;
75504;SDS011;64085;54.974;73.410;2022-11-21T07:58:00;18.30;;;8.73;;
75504;SDS011;64085;54.974;73.410;2022-11-21T08:00:27;12.32;;;6.30;;
75504;SDS011;64085;54.974;73.410;2022-11-21T08:02:53;9.63;;;4.95;;
75504;SDS011;64085;54.974;73.410;2022-11-21T08:05:18;9.07;;;5.00;;
75504;SDS011;64085;54.974;73.410;2022-11-21T08:07:44;8.52;;;4.47;;
75504;SDS011;64085;54.974;73.410;2022-11-21T08:10:09;6.15;;;2.72;;
75504;SDS011;64085;54.974;73.410;2022-11-21T08:12:34;9.48;;;4.55;;
75504;SDS011;64085;54.974;73.410;2022-11-21T08:15:00;9.88;;;3.95;;
75504;SDS011;64085;54.974;73.410;2022-11-21T08:17:26;11.88;;;6.30;;
75504;SDS011;64085;54.974;73.410;2022-11-21T08:19:51;10.45;;;5.28;;
75504;SDS011;64085;54.974;73.410;2022-11-21T08:22:17;14.15;;;6.75;;
75504;SDS011;64085;54.974;73.410;2022-11-21T08:24:42;11.63;;;5.18;;
75504;SDS011;64085;54.974;73.410;2022-11-21T08:27:08;12.90;;;5.40;;
75504;SDS011;64085;54.974;73.410;2022-11-21T08:29:33;7.45;;;3.92;;
75504;SDS011;64085;54.974;73.410;2022-11-21T08:31:59;10.13;;;4.53;;
75504;SDS011;64085;54.974;73.410;2022-11-21T08:34:25;7.88;;;3.65;;
75504;SDS011;64085;54.974;73.410;2022-11-21T08:36:50;12.48;;;6.50;;
75504;SDS011;64085;54.974;73.410;2022-11-21T08:39:17;8.27;;;4.20;;
75504;SDS011;64085;54.974;73.410;2022-11-21T08:41:42;13.63;;;5.95;;
75504;SDS011;64085;54.974;73.410;2022-11-21T08:44:26;14.68;;;5.18;;
75504;SDS011;64085;54.974;73.410;2022-11-21T08:46:53;7.47;;;3.78;;
75504;SDS011;64085;54.974;73.410;2022-11-21T08:49:18;11.13;;;4.57;;
75504;SDS011;64085;54.974;73.410;2022-11-21T08:51:45;8.65;;;3.60;;
75504;SDS011;64085;54.974;73.410;2022-11-21T08:54:13;11.68;;;5.13;;
75504;SDS011;64085;54.974;73.410;2022-11-21T08:56:38;10.85;;;4.43;;
75504;SDS011;64085;54.974;73.410;2022-11-21T08:59:04;8.43;;;3.00;;
75504;SDS011;64085;54.974;73.410;2022-11-21T09:01:29;1.88;;;1.75;;
75504;SDS011;64085;54.974;73.410;2022-11-21T09:03:55;8.80;;;3.25;;
75504;SDS011;64085;54.974;73.410;2022-11-21T09:06:20;9.25;;;4.20;;
75504;SDS011;64085;54.974;73.410;2022-11-21T09:08:46;12.98;;;3.83;;
75504;SDS011;64085;54.974;73.410;2022-11-21T09:11:11;13.63;;;7.18;;
75504;SDS011;64085;54.974;73.410;2022-11-21T09:13:37;9.50;;;5.10;;
75504;SDS011;64085;54.974;73.410;2022-11-21T09:16:02;8.82;;;4.75;;
75504;SDS011;64085;54.974;73.410;2022-11-21T09:18:47;3.97;;;2.83;;
75504;SDS011;64085;54.974;73.410;2022-11-21T09:21:13;12.43;;;4.97;;
75504;SDS011;64085;54.974;73.410;2022-11-21T09:23:39;8.63;;;4.38;;
75504;SDS011;64085;54.974;73.410;2022-11-21T09:26:04;9.93;;;4.05;;
75504;SDS011;64085;54.974;73.410;2022-11-21T09:28:30;11.90;;;3.85;;
75504;SDS011;64085;54.974;73.410;2022-11-21T09:30:55;6.40;;;4.05;;
75504;SDS011;64085;54.974;73.410;2022-11-21T09:33:21;12.02;;;5.65;;
75504;SDS011;64085;54.974;73.410;2022-11-21T09:35:46;3.42;;;1.88;;
75504;SDS011;64085;54.974;73.410;2022-11-21T09:38:12;8.85;;;8.10;;
75504;SDS011;64085;54.974;73.410;2022-11-21T09:40:38;1.77;;;1.45;;
75504;SDS011;64085;54.974;73.410;2022-11-21T09:45:47;10.80;;;6.07;;
75504;SDS011;64085;54.974;73.410;2022-11-21T09:48:22;7.85;;;3.85;;
75504;SDS011;64085;54.974;73.410;2022-11-21T09:50:50;7.03;;;4.03;;
75504;SDS011;64085;54.974;73.410;2022-11-21T09:53:31;10.60;;;4.00;;
75504;SDS011;64085;54.974;73.410;2022-11-21T09:55:58;9.48;;;3.08;;
75504;SDS011;64085;54.974;73.410;2022-11-21T09:58:34;7.38;;;3.75;;
75504;SDS011;64085;54.974;73.410;2022-11-21T10:01:01;7.57;;;2.88;;
75504;SDS011;64085;54.974;73.410;2022-11-21T10:03:31;4.55;;;3.38;;
75504;SDS011;64085;54.974;73.410;2022-11-21T10:11:30;7.05;;;3.90;;
75504;SDS011;64085;54.974;73.410;2022-11-21T10:13:55;6.63;;;4.30;;
75504;SDS011;64085;54.974;73.410;2022-11-21T10:28:53;2.15;;;0.93;;
75504;SDS011;64085;54.974;73.410;2022-11-21T10:31:19;4.60;;;2.58;;
75504;SDS011;64085;54.974;73.410;2022-11-21T10:33:45;5.75;;;3.03;;
75504;SDS011;64085;54.974;73.410;2022-11-21T10:36:18;0.50;;;0.38;;
75504;SDS011;64085;54.974;73.410;2022-11-21T10:38:47;6.65;;;2.85;;
75504;SDS011;64085;54.974;73.410;2022-11-21T10:41:22;11.73;;;3.17;;
75504;SDS011;64085;54.974;73.410;2022-11-21T10:43:58;5.10;;;3.08;;
75504;SDS011;64085;54.974;73.410;2022-11-21T10:47:11;6.55;;;4.80;;
75504;SDS011;64085;54.974;73.410;2022-11-21T10:49:32;4.75;;;3.03;;
75504;SDS011;64085;54.974;73.410;2022-11-21T10:52:12;6.07;;;1.88;;
75504;SDS011;64085;54.974;73.410;2022-11-21T10:57:24;3.75;;;2.55;;
75504;SDS011;64085;54.974;73.410;2022-11-21T11:00:01;3.67;;;1.90;;
75504;SDS011;64085;54.974;73.410;2022-11-21T11:02:26;5.15;;;4.00;;
75504;SDS011;64085;54.974;73.410;2022-11-21T11:07:36;1.63;;;1.27;;
75504;SDS011;64085;54.974;73.410;2022-11-21T11:10:21;10.43;;;5.78;;
75504;SDS011;64085;54.974;73.410;2022-11-21T11:12:47;5.35;;;2.75;;
75504;SDS011;64085;54.974;73.410;2022-11-21T11:15:32;5.68;;;2.83;;
75504;SDS011;64085;54.974;73.410;2022-11-21T11:18:01;3.85;;;2.63;;
75504;SDS011;64085;54.974;73.410;2022-11-21T11:20:32;6.72;;;4.00;;
75504;SDS011;64085;54.974;73.410;2022-11-21T11:22:58;8.07;;;5.07;;
75504;SDS011;64085;54.974;73.410;2022-11-21T11:25:23;6.95;;;3.50;;
75504;SDS011;64085;54.974;73.410;2022-11-21T11:27:49;12.07;;;3.28;;
75504;SDS011;64085;54.974;73.410;2022-11-21T11:30:15;3.88;;;3.13;;
75504;SDS011;64085;54.974;73.410;2022-11-21T11:32:40;9.40;;;2.72;;
75504;SDS011;64085;54.974;73.410;2022-11-21T11:37:41;4.35;;;2.05;;
75504;SDS011;64085;54.974;73.410;2022-11-21T11:40:14;4.43;;;3.50;;
75504;SDS011;64085;54.974;73.410;2022-11-21T11:48:20;9.02;;;2.05;;
75504;SDS011;64085;54.974;73.410;2022-11-21T11:50:50;2.03;;;1.80;;
75504;SDS011;64085;54.974;73.410;2022-11-21T11:53:59;5.30;;;1.98;;
75504;SDS011;64085;54.974;73.410;2022-11-21T11:58:42;3.58;;;1.73;;
75504;SDS011;64085;54.974;73.410;2022-11-21T12:01:10;11.98;;;5.22;;
75504;SDS011;64085;54.974;73.410;2022-11-21T12:03:45;6.57;;;4.10;;
75504;SDS011;64085;54.974;73.410;2022-11-21T12:08:58;9.68;;;6.53;;
75504;SDS011;64085;54.974;73.410;2022-11-21T12:11:44;11.15;;;5.20;;
75504;SDS011;64085;54.974;73.410;2022-11-21T12:17:47;7.43;;;3.40;;
75504;SDS011;64085;54.974;73.410;2022-11-21T12:20:17;12.90;;;6.32;;
75504;SDS011;64085;54.974;73.410;2022-11-21T12:22:44;14.80;;;5.18;;
75504;SDS011;64085;54.974;73.410;2022-11-21T12:25:10;13.52;;;7.28;;
75504;SDS011;64085;54.974;73.410;2022-11-21T12:27:36;28.13;;;11.95;;
75504;SDS011;64085;54.974;73.410;2022-11-21T12:33:11;30.15;;;9.10;;
75504;SDS011;64085;54.974;73.410;2022-11-21T12:41:11;22.00;;;10.90;;
75504;SDS011;64085;54.974;73.410;2022-11-21T12:46:27;10.68;;;5.60;;
75504;SDS011;64085;54.974;73.410;2022-11-21T12:49:07;11.23;;;6.95;;
75504;SDS011;64085;54.974;73.410;2022-11-21T12:52:08;17.77;;;8.60;;
75504;SDS011;64085;54.974;73.410;2022-11-21T12:55:01;6.20;;;4.78;;
75504;SDS011;64085;54.974;73.410;2022-11-21T12:57:36;7.55;;;3.42;;
75504;SDS011;64085;54.974;73.410;2022-11-21T13:03:18;8.43;;;5.88;;
75504;SDS011;64085;54.974;73.410;2022-11-21T13:05:26;8.15;;;4.65;;
75504;SDS011;64085;54.974;73.410;2022-11-21T13:07:53;25.60;;;5.72;;
75504;SDS011;64085;54.974;73.410;2022-11-21T13:10:22;15.35;;;6.32;;
75504;SDS011;64085;54.974;73.410;2022-11-21T13:12:52;21.95;;;8.07;;
75504;SDS011;64085;54.974;73.410;2022-11-21T13:15:21;25.25;;;5.78;;
75504;SDS011;64085;54.974;73.410;2022-11-21T13:18:32;12.38;;;6.35;;
75504;SDS011;64085;54.974;73.410;2022-11-21T13:20:38;13.23;;;7.80;;
75504;SDS011;64085;54.974;73.410;2022-11-21T13:23:03;8.50;;;4.80;;
75504;SDS011;64085;54.974;73.410;2022-11-21T13:25:40;6.32;;;4.43;;
75504;SDS011;64085;54.974;73.410;2022-11-21T13:30:44;9.38;;;4.53;;
75504;SDS011;64085;54.974;73.410;2022-11-21T13:33:10;3.25;;;1.70;;
75504;SDS011;64085;54.974;73.410;2022-11-21T13:35:56;11.55;;;3.03;;
75504;SDS011;64085;54.974;73.410;2022-11-21T13:38:21;6.30;;;3.55;;
75504;SDS011;64085;54.974;73.410;2022-11-21T13:40:47;8.18;;;4.25;;
75504;SDS011;64085;54.974;73.410;2022-11-21T13:43:31;7.35;;;3.95;;
75504;SDS011;64085;54.974;73.410;2022-11-21T13:45:57;7.22;;;4.15;;
75504;SDS011;64085;54.974;73.410;2022-11-21T14:06:36;9.65;;;5.28;;
75504;SDS011;64085;54.974;73.410;2022-11-21T14:11:47;9.02;;;4.22;;
75504;SDS011;64085;54.974;73.410;2022-11-21T14:17:22;15.60;;;6.32;;
75504;SDS011;64085;54.974;73.410;2022-11-21T14:19:43;19.25;;;8.13;;
75504;SDS011;64085;54.974;73.410;2022-11-21T14:22:13;23.70;;;13.35;;
75504;SDS011;64085;54.974;73.410;2022-11-21T14:24:40;9.77;;;5.90;;
75504;SDS011;64085;54.974;73.410;2022-11-21T14:27:05;17.90;;;8.85;;
75504;SDS011;64085;54.974;73.410;2022-11-21T14:29:39;15.07;;;6.95;;
75504;SDS011;64085;54.974;73.410;2022-11-21T14:32:11;15.15;;;8.07;;
75504;SDS011;64085;54.974;73.410;2022-11-21T14:34:37;15.43;;;8.73;;
75504;SDS011;64085;54.974;73.410;2022-11-21T14:37:04;15.18;;;8.85;;
75504;SDS011;64085;54.974;73.410;2022-11-21T14:39:31;22.98;;;12.27;;
75504;SDS011;64085;54.974;73.410;2022-11-21T14:41:58;19.80;;;9.25;;
75504;SDS011;64085;54.974;73.410;2022-11-21T14:44:25;20.92;;;11.52;;
75504;SDS011;64085;54.974;73.410;2022-11-21T14:46:51;12.43;;;7.07;;
75504;SDS011;64085;54.974;73.410;2022-11-21T14:49:26;20.60;;;8.70;;
75504;SDS011;64085;54.974;73.410;2022-11-21T14:52:01;25.27;;;11.00;;
75504;SDS011;64085;54.974;73.410;2022-11-21T14:54:31;24.67;;;10.07;;
75504;SDS011;64085;54.974;73.410;2022-11-21T14:57:00;11.70;;;4.35;;
75504;SDS011;64085;54.974;73.410;2022-11-21T14:59:31;14.25;;;6.97;;
75504;SDS011;64085;54.974;73.410;2022-11-21T15:01:58;7.53;;;4.47;;
75504;SDS011;64085;54.974;73.410;2022-11-21T15:04:26;9.35;;;5.18;;
75504;SDS011;64085;54.974;73.410;2022-11-21T15:06:51;8.38;;;3.75;;
75504;SDS011;64085;54.974;73.410;2022-11-21T15:09:17;8.88;;;3.40;;
75504;SDS011;64085;54.974;73.410;2022-11-21T15:16:55;12.20;;;5.38;;
75504;SDS011;64085;54.974;73.410;2022-11-21T15:19:22;9.77;;;6.72;;
75504;SDS011;64085;54.974;73.410;2022-11-21T15:21:50;18.88;;;8.70;;
75504;SDS011;64085;54.974;73.410;2022-11-21T15:24:17;5.82;;;3.42;;
75504;SDS011;64085;54.974;73.410;2022-11-21T15:26:43;5.93;;;4.50;;
75504;SDS011;64085;54.974;73.410;2022-11-21T15:29:16;9.88;;;5.55;;
75504;SDS011;64085;54.974;73.410;2022-11-21T15:31:42;8.32;;;4.80;;
75504;SDS011;64085;54.974;73.410;2022-11-21T15:34:08;9.93;;;3.72;;
75504;SDS011;64085;54.974;73.410;2022-11-21T15:36:33;7.53;;;2.65;;
75504;SDS011;64085;54.974;73.410;2022-11-21T15:39:00;15.13;;;5.78;;
75504;SDS011;64085;54.974;73.410;2022-11-21T15:41:34;6.70;;;2.15;;
75504;SDS011;64085;54.974;73.410;2022-11-21T15:46:26;10.40;;;5.50;;
75504;SDS011;64085;54.974;73.410;2022-11-21T15:48:53;12.60;;;4.88;;
75504;SDS011;64085;54.974;73.410;2022-11-21T15:51:20;7.25;;;4.43;;
75504;SDS011;64085;54.974;73.410;2022-11-21T15:53:46;11.05;;;5.65;;
75504;SDS011;64085;54.974;73.410;2022-11-21T15:56:12;8.90;;;4.15;;
75504;SDS011;64085;54.974;73.410;2022-11-21T15:58:38;17.75;;;2.22;;
75504;SDS011;64085;54.974;73.410;2022-11-21T16:01:03;3.50;;;3.20;;
75504;SDS011;64085;54.974;73.410;2022-11-21T16:03:29;11.07;;;4.30;;
75504;SDS011;64085;54.974;73.410;2022-11-21T16:05:54;8.13;;;5.30;;
75504;SDS011;64085;54.974;73.410;2022-11-21T16:08:19;15.63;;;6.85;;